Time;durP1;ratioP1;P1;durP2;ratioP2;P2;SDS_P1;SDS_P2;PMS_P1;PMS_P2;Temp;Humidity;BMP_temperature;BMP_pressure;BME280_temperature;BME280_humidity;BME280_pressure;Samples;Min_cycle;Max_cycle;Signal;HPM_P1;HPM_P2
2021/11/15 00:00:37;;;;;;;33.42;14.43;;;;;;;;;;5014561;28;20021;-73
2021/11/15 00:03:03;;;;;;;28.58;14.25;;;;;;;;;;5010218;28;20473;-73
2021/11/15 00:05:29;;;;;;;28.25;14.30;;;;;;;;;;5009871;28;20022;-73
2021/11/15 00:07:55;;;;;;;25.60;13.02;;;;;;;;;;5010558;28;20108;-72
2021/11/15 00:10:21;;;;;;;30.98;15.05;;;;;;;;;;5016765;28;20126;-72
2021/11/15 00:12:50;;;;;;;34.33;14.02;;;;;;;;;;5015188;28;20026;-72
2021/11/15 00:15:16;;;;;;;32.28;15.68;;;;;;;;;;5015121;28;20116;-72
2021/11/15 00:17:42;;;;;;;27.92;13.50;;;;;;;;;;5013446;28;20534;-72
2021/11/15 00:20:09;;;;;;;27.40;13.13;;;;;;;;;;5010238;28;20033;-72
2021/11/15 00:22:35;;;;;;;28.67;14.98;;;;;;;;;;5016694;28;20037;-72
2021/11/15 00:25:01;;;;;;;27.42;13.60;;;;;;;;;;5017870;28;20037;-72
2021/11/15 00:27:27;;;;;;;22.98;12.20;;;;;;;;;;5015090;28;20026;-72
2021/11/15 00:29:55;;;;;;;25.92;11.75;;;;;;;;;;5016363;28;20029;-72
2021/11/15 00:32:21;;;;;;;25.35;13.02;;;;;;;;;;5014780;28;20482;-72
2021/11/15 00:34:47;;;;;;;23.08;12.05;;;;;;;;;;5014566;28;20029;-73
2021/11/15 00:37:13;;;;;;;28.52;14.00;;;;;;;;;;5010806;28;20022;-73
2021/11/15 00:39:38;;;;;;;23.90;13.02;;;;;;;;;;5015329;28;20041;-73
2021/11/15 00:42:05;;;;;;;25.25;12.00;;;;;;;;;;5014917;28;20022;-73
2021/11/15 00:44:30;;;;;;;26.90;12.63;;;;;;;;;;5006936;28;20109;-72
2021/11/15 00:46:56;;;;;;;22.42;11.95;;;;;;;;;;5008230;28;20026;-73
2021/11/15 00:49:22;;;;;;;23.08;12.32;;;;;;;;;;5015571;28;20033;-73
2021/11/15 00:51:48;;;;;;;24.75;11.18;;;;;;;;;;5010640;28;20040;-73
2021/11/15 00:54:14;;;;;;;25.63;12.88;;;;;;;;;;5016559;28;20257;-72
2021/11/15 00:56:40;;;;;;;23.30;12.05;;;;;;;;;;5014542;28;20475;-72
2021/11/15 00:59:06;;;;;;;22.92;12.35;;;;;;;;;;5014891;28;20018;-72
2021/11/15 01:01:32;;;;;;;25.38;12.20;;;;;;;;;;5015392;28;20033;-72
2021/11/15 01:03:58;;;;;;;25.25;11.80;;;;;;;;;;5016011;28;20034;-72
2021/11/15 01:06:24;;;;;;;25.67;12.98;;;;;;;;;;5015246;28;20068;-72
2021/11/15 01:08:50;;;;;;;21.95;12.15;;;;;;;;;;5014954;28;20052;-72
2021/11/15 01:11:16;;;;;;;26.40;12.93;;;;;;;;;;5013793;28;20038;-72
2021/11/15 01:13:42;;;;;;;28.15;13.55;;;;;;;;;;5004968;28;20022;-72
2021/11/15 01:16:08;;;;;;;27.50;13.55;;;;;;;;;;5013054;28;20026;-72
2021/11/15 01:18:35;;;;;;;25.85;12.48;;;;;;;;;;5012582;28;20026;-72
2021/11/15 01:21:01;;;;;;;24.33;12.57;;;;;;;;;;5010631;28;20105;-72
2021/11/15 01:23:27;;;;;;;23.70;11.15;;;;;;;;;;5006100;28;20057;-72
2021/11/15 01:25:53;;;;;;;22.60;12.32;;;;;;;;;;5011227;28;20030;-72
2021/11/15 01:28:19;;;;;;;24.15;12.38;;;;;;;;;;5010647;28;20395;-72
2021/11/15 01:30:45;;;;;;;24.80;13.82;;;;;;;;;;5013432;28;20068;-72
2021/11/15 01:33:11;;;;;;;23.45;13.20;;;;;;;;;;5017324;28;20021;-72
2021/11/15 01:35:37;;;;;;;24.58;12.45;;;;;;;;;;5013120;28;20025;-72
2021/11/15 01:38:03;;;;;;;23.63;13.00;;;;;;;;;;5012100;28;20044;-72
2021/11/15 01:40:31;;;;;;;25.33;11.38;;;;;;;;;;5012528;28;20104;-72
2021/11/15 01:42:57;;;;;;;26.80;12.65;;;;;;;;;;5016419;28;20018;-72
2021/11/15 01:45:24;;;;;;;23.95;11.85;;;;;;;;;;5023518;28;20026;-73
2021/11/15 01:47:51;;;;;;;25.30;11.85;;;;;;;;;;5014328;28;20455;-73
2021/11/15 01:50:19;;;;;;;28.15;12.82;;;;;;;;;;5012177;28;20030;-73
2021/11/15 01:52:45;;;;;;;22.10;12.18;;;;;;;;;;5012840;28;20026;-72
2021/11/15 01:55:11;;;;;;;23.15;11.35;;;;;;;;;;5011847;28;20030;-72
2021/11/15 01:57:37;;;;;;;28.17;13.48;;;;;;;;;;5012452;28;20026;-72
2021/11/15 02:00:06;;;;;;;21.75;11.70;;;;;;;;;;5012158;28;20105;-72
2021/11/15 02:02:32;;;;;;;24.30;11.30;;;;;;;;;;5012072;28;20097;-72
2021/11/15 02:04:58;;;;;;;24.35;12.00;;;;;;;;;;5009856;28;20121;-73
2021/11/15 02:07:25;;;;;;;25.42;12.70;;;;;;;;;;5011620;28;20064;-73
2021/11/15 02:09:51;;;;;;;27.65;13.18;;;;;;;;;;5011982;28;20034;-73
2021/11/15 02:12:17;;;;;;;27.35;13.73;;;;;;;;;;5008537;28;20478;-73
2021/11/15 02:14:43;;;;;;;29.13;12.75;;;;;;;;;;5011972;28;20029;-72
2021/11/15 02:17:09;;;;;;;28.92;15.55;;;;;;;;;;5011958;28;20483;-72
2021/11/15 02:19:35;;;;;;;29.33;14.35;;;;;;;;;;5011730;28;20071;-72
2021/11/15 02:22:01;;;;;;;29.65;15.35;;;;;;;;;;5010820;28;20097;-72
2021/11/15 02:24:27;;;;;;;31.08;15.40;;;;;;;;;;5009573;28;20056;-72
2021/11/15 02:26:54;;;;;;;32.33;15.18;;;;;;;;;;5004732;28;20025;-73
2021/11/15 02:29:20;;;;;;;30.58;14.90;;;;;;;;;;5009294;28;20030;-73
2021/11/15 02:31:46;;;;;;;32.10;16.00;;;;;;;;;;5004756;28;20108;-73
2021/11/15 02:34:12;;;;;;;27.65;15.48;;;;;;;;;;5011265;28;20034;-73
2021/11/15 02:36:38;;;;;;;28.90;13.27;;;;;;;;;;5014377;28;20033;-72
2021/11/15 02:39:05;;;;;;;25.75;13.23;;;;;;;;;;5030860;28;20026;-72
2021/11/15 02:41:31;;;;;;;25.42;12.82;;;;;;;;;;5031249;28;20022;-72
2021/11/15 02:43:58;;;;;;;29.80;13.88;;;;;;;;;;5024310;28;20068;-73
2021/11/15 02:46:25;;;;;;;27.02;12.50;;;;;;;;;;5023071;28;20167;-72
2021/11/15 02:48:51;;;;;;;25.50;12.93;;;;;;;;;;5017795;28;20025;-73
2021/11/15 02:51:17;;;;;;;24.65;12.40;;;;;;;;;;5011139;28;20395;-72
2021/11/15 02:53:43;;;;;;;23.35;11.25;;;;;;;;;;5007282;28;20036;-73
2021/11/15 02:56:09;;;;;;;25.88;11.73;;;;;;;;;;5012666;28;20022;-72
2021/11/15 02:58:36;;;;;;;23.42;12.25;;;;;;;;;;5007320;28;20106;-72
2021/11/15 03:01:06;;;;;;;25.77;14.13;;;;;;;;;;5005884;28;20030;-72
2021/11/15 03:03:32;;;;;;;24.05;12.95;;;;;;;;;;5026120;28;20403;-73
2021/11/15 03:05:58;;;;;;;29.70;12.75;;;;;;;;;;5012645;28;20037;-73
2021/11/15 03:08:25;;;;;;;22.25;11.85;;;;;;;;;;5011591;28;20057;-72
2021/11/15 03:10:58;;;;;;;27.98;12.48;;;;;;;;;;5007113;28;20018;-73
2021/11/15 03:13:24;;;;;;;22.50;12.50;;;;;;;;;;5010251;28;20116;-73
2021/11/15 03:15:52;;;;;;;22.35;11.43;;;;;;;;;;5008198;28;20543;-72
2021/11/15 03:18:22;;;;;;;20.25;10.88;;;;;;;;;;5010871;28;20067;-72
2021/11/15 03:20:58;;;;;;;23.98;11.60;;;;;;;;;;5001493;28;20545;-73
2021/11/15 03:23:25;;;;;;;21.63;11.23;;;;;;;;;;5010844;28;20410;-72
2021/11/15 03:25:52;;;;;;;25.33;11.18;;;;;;;;;;5010969;28;20041;-73
2021/11/15 03:28:19;;;;;;;22.30;10.18;;;;;;;;;;5011333;28;20383;-73
2021/11/15 03:30:45;;;;;;;22.77;10.73;;;;;;;;;;5011560;28;20458;-73
2021/11/15 03:33:12;;;;;;;19.15;9.77;;;;;;;;;;5004087;28;20110;-73
2021/11/15 03:35:38;;;;;;;20.58;9.93;;;;;;;;;;5000024;28;20398;-73
2021/11/15 03:38:05;;;;;;;27.05;11.73;;;;;;;;;;5011193;28;20357;-73
2021/11/15 03:40:31;;;;;;;24.55;11.13;;;;;;;;;;5011387;28;20038;-72
2021/11/15 03:42:59;;;;;;;24.40;11.40;;;;;;;;;;5010508;28;20090;-72
2021/11/15 03:45:25;;;;;;;24.52;12.82;;;;;;;;;;5002404;28;20102;-72
2021/11/15 03:47:51;;;;;;;24.92;11.30;;;;;;;;;;5002820;28;20029;-72
2021/11/15 03:50:18;;;;;;;27.00;12.23;;;;;;;;;;5003049;28;20467;-72
2021/11/15 03:52:45;;;;;;;24.48;10.73;;;;;;;;;;5010627;28;20425;-73
2021/11/15 03:55:13;;;;;;;18.90;9.88;;;;;;;;;;5010646;28;20092;-72
2021/11/15 03:57:39;;;;;;;24.55;11.00;;;;;;;;;;5010547;28;20072;-73
2021/11/15 04:00:07;;;;;;;25.60;11.70;;;;;;;;;;5009235;28;20026;-72
2021/11/15 04:02:33;;;;;;;25.92;12.45;;;;;;;;;;5007280;28;20026;-73
2021/11/15 04:05:04;;;;;;;29.65;13.30;;;;;;;;;;5004942;28;20069;-73
2021/11/15 04:07:35;;;;;;;29.88;13.60;;;;;;;;;;5007236;28;20037;-72
2021/11/15 04:10:10;;;;;;;28.50;13.05;;;;;;;;;;5009201;28;20022;-73
2021/11/15 04:12:36;;;;;;;30.92;12.70;;;;;;;;;;5010004;28;20075;-72
2021/11/15 04:15:02;;;;;;;32.00;13.65;;;;;;;;;;5010471;28;20060;-73
2021/11/15 04:17:28;;;;;;;28.77;13.02;;;;;;;;;;5009336;28;20207;-72
2021/11/15 04:19:54;;;;;;;30.50;13.30;;;;;;;;;;5004372;28;20029;-72
2021/11/15 04:22:20;;;;;;;26.17;12.23;;;;;;;;;;5007602;28;20033;-72
2021/11/15 04:24:46;;;;;;;22.35;11.35;;;;;;;;;;4994557;28;20112;-72
2021/11/15 04:27:12;;;;;;;27.38;12.63;;;;;;;;;;5005938;28;20425;-73
2021/11/15 04:29:38;;;;;;;26.35;11.23;;;;;;;;;;5001383;28;20034;-72
2021/11/15 04:32:05;;;;;;;24.88;11.20;;;;;;;;;;5006491;28;20109;-72
2021/11/15 04:34:32;;;;;;;25.40;10.98;;;;;;;;;;5009332;28;20041;-73
2021/11/15 04:36:58;;;;;;;25.02;11.70;;;;;;;;;;5004558;28;20112;-73
2021/11/15 04:39:24;;;;;;;26.83;11.65;;;;;;;;;;5008908;28;20022;-72
2021/11/15 04:41:49;;;;;;;22.95;10.23;;;;;;;;;;5025082;28;20076;-73
2021/11/15 04:44:15;;;;;;;22.23;10.75;;;;;;;;;;5008884;28;20021;-73
2021/11/15 04:46:42;;;;;;;23.27;10.50;;;;;;;;;;5007511;28;20044;-73
2021/11/15 04:49:08;;;;;;;20.10;9.98;;;;;;;;;;5001989;28;20431;-73
2021/11/15 04:51:34;;;;;;;22.17;10.07;;;;;;;;;;5012121;28;20030;-72
2021/11/15 04:54:00;;;;;;;19.75;9.65;;;;;;;;;;5008605;28;20492;-73
2021/11/15 04:56:26;;;;;;;21.73;10.60;;;;;;;;;;5010946;28;20117;-73
2021/11/15 04:58:52;;;;;;;24.52;11.68;;;;;;;;;;5006441;28;20114;-73
2021/11/15 05:01:18;;;;;;;22.52;10.75;;;;;;;;;;5013890;28;20026;-72
2021/11/15 05:03:44;;;;;;;21.27;9.98;;;;;;;;;;5015839;28;20057;-73
2021/11/15 05:06:10;;;;;;;20.95;9.90;;;;;;;;;;5010119;28;20165;-73
2021/11/15 05:08:36;;;;;;;21.27;10.57;;;;;;;;;;5009332;28;20059;-72
2021/11/15 05:11:03;;;;;;;23.55;9.65;;;;;;;;;;5008801;28;20056;-73
2021/11/15 05:13:29;;;;;;;24.55;12.45;;;;;;;;;;5013339;28;20030;-73
2021/11/15 05:15:55;;;;;;;23.02;11.35;;;;;;;;;;5008769;28;20580;-73
2021/11/15 05:18:21;;;;;;;24.30;11.65;;;;;;;;;;5013503;28;20092;-72
2021/11/15 05:20:47;;;;;;;27.92;12.55;;;;;;;;;;5003995;28;20022;-73
2021/11/15 05:23:13;;;;;;;25.10;11.70;;;;;;;;;;5010467;28;20100;-73
2021/11/15 05:25:39;;;;;;;23.88;10.80;;;;;;;;;;5006659;28;20894;-73
2021/11/15 05:28:05;;;;;;;25.20;11.15;;;;;;;;;;5013177;28;20096;-72
2021/11/15 05:30:31;;;;;;;26.70;11.10;;;;;;;;;;5011311;28;20037;-73
2021/11/15 05:32:57;;;;;;;21.23;11.35;;;;;;;;;;5011241;28;20033;-72
2021/11/15 05:35:24;;;;;;;22.80;13.30;;;;;;;;;;5012854;28;20076;-72
2021/11/15 05:37:51;;;;;;;26.70;12.02;;;;;;;;;;5013427;28;20018;-73
2021/11/15 05:40:17;;;;;;;22.85;10.50;;;;;;;;;;5011382;28;20026;-73
2021/11/15 05:42:44;;;;;;;20.42;10.02;;;;;;;;;;5011113;28;20022;-73
2021/11/15 05:45:10;;;;;;;21.67;10.32;;;;;;;;;;5007261;28;20053;-73
2021/11/15 05:47:36;;;;;;;28.23;11.98;;;;;;;;;;5009164;28;20036;-73
2021/11/15 05:50:03;;;;;;;22.67;11.00;;;;;;;;;;5010081;28;20025;-73
2021/11/15 05:52:30;;;;;;;22.52;10.95;;;;;;;;;;5008073;28;20084;-73
2021/11/15 05:54:55;;;;;;;23.05;11.10;;;;;;;;;;5010824;28;20500;-73
2021/11/15 05:57:21;;;;;;;24.08;11.57;;;;;;;;;;5008006;28;20022;-73
2021/11/15 05:59:48;;;;;;;26.27;11.48;;;;;;;;;;5015587;28;20033;-72
2021/11/15 06:02:14;;;;;;;19.25;10.05;;;;;;;;;;5012065;28;20032;-72
2021/11/15 06:04:40;;;;;;;24.05;10.82;;;;;;;;;;5009496;28;20403;-72
2021/11/15 06:07:06;;;;;;;22.75;11.30;;;;;;;;;;5010163;28;20030;-73
2021/11/15 06:09:32;;;;;;;23.58;11.93;;;;;;;;;;5010033;28;20499;-73
2021/11/15 06:11:58;;;;;;;23.08;11.50;;;;;;;;;;5013459;28;20116;-73
2021/11/15 06:14:23;;;;;;;27.20;13.20;;;;;;;;;;5004170;28;20038;-73
2021/11/15 06:16:50;;;;;;;24.08;11.23;;;;;;;;;;5012053;28;20097;-73
2021/11/15 06:19:16;;;;;;;26.75;12.23;;;;;;;;;;5012159;28;20084;-73
2021/11/15 06:21:41;;;;;;;24.10;12.32;;;;;;;;;;5011338;28;20486;-73
2021/11/15 06:24:07;;;;;;;24.60;12.07;;;;;;;;;;5011405;28;20030;-73
2021/11/15 06:26:33;;;;;;;24.98;12.50;;;;;;;;;;5012139;28;20042;-74
2021/11/15 06:28:59;;;;;;;23.20;11.57;;;;;;;;;;5011660;28;20021;-73
2021/11/15 06:31:25;;;;;;;23.48;11.88;;;;;;;;;;5002450;28;20026;-73
2021/11/15 06:33:52;;;;;;;24.77;12.27;;;;;;;;;;5009395;28;20030;-73
2021/11/15 06:36:18;;;;;;;29.15;13.00;;;;;;;;;;5010268;28;20036;-73
2021/11/15 06:38:45;;;;;;;25.85;12.07;;;;;;;;;;5010549;28;20061;-73
2021/11/15 06:41:11;;;;;;;24.13;12.35;;;;;;;;;;5007039;28;20029;-74
2021/11/15 06:43:37;;;;;;;24.92;12.77;;;;;;;;;;5011085;28;20036;-74
2021/11/15 06:46:03;;;;;;;26.77;11.65;;;;;;;;;;5004757;28;20030;-74
2021/11/15 06:48:30;;;;;;;25.55;12.73;;;;;;;;;;5009315;28;20028;-74
2021/11/15 06:50:56;;;;;;;29.65;13.40;;;;;;;;;;5006240;28;20022;-74
2021/11/15 06:53:22;;;;;;;22.58;11.88;;;;;;;;;;5012201;28;20101;-74
2021/11/15 06:55:49;;;;;;;29.02;14.65;;;;;;;;;;5009197;28;20022;-74
2021/11/15 06:58:14;;;;;;;23.95;12.35;;;;;;;;;;5010584;28;20033;-74
2021/11/15 07:00:41;;;;;;;29.63;13.40;;;;;;;;;;5002347;28;20022;-74
2021/11/15 07:03:07;;;;;;;28.88;13.70;;;;;;;;;;5009029;28;20033;-73
2021/11/15 07:05:33;;;;;;;25.67;12.88;;;;;;;;;;5005545;28;20026;-74
2021/11/15 07:07:59;;;;;;;26.52;12.65;;;;;;;;;;5002801;28;20030;-74
2021/11/15 07:10:25;;;;;;;28.15;13.32;;;;;;;;;;5002829;28;20065;-74
2021/11/15 07:12:51;;;;;;;24.67;12.73;;;;;;;;;;5000752;28;20033;-77
2021/11/15 07:15:18;;;;;;;24.88;13.30;;;;;;;;;;5001983;28;20033;-72
2021/11/15 07:17:46;;;;;;;32.40;14.13;;;;;;;;;;4997132;28;20025;-72
2021/11/15 07:20:12;;;;;;;26.55;13.88;;;;;;;;;;5002814;28;20026;-71
2021/11/15 07:22:38;;;;;;;26.27;13.52;;;;;;;;;;4996834;28;20105;-71
2021/11/15 07:25:05;;;;;;;28.25;12.82;;;;;;;;;;4997644;28;20109;-72
2021/11/15 07:27:31;;;;;;;22.48;12.07;;;;;;;;;;5005212;28;20121;-72
2021/11/15 07:29:57;;;;;;;28.02;13.38;;;;;;;;;;4997882;28;20450;-73
2021/11/15 07:32:24;;;;;;;25.20;12.82;;;;;;;;;;5001471;28;20113;-73
2021/11/15 07:34:50;;;;;;;30.00;13.38;;;;;;;;;;4997103;28;20043;-73
2021/11/15 07:37:16;;;;;;;25.45;13.82;;;;;;;;;;4997688;28;20152;-73
2021/11/15 07:39:42;;;;;;;27.73;12.43;;;;;;;;;;4997798;28;20104;-73
2021/11/15 07:42:15;;;;;;;26.30;13.10;;;;;;;;;;4995602;28;20026;-73
2021/11/15 07:44:41;;;;;;;25.00;12.18;;;;;;;;;;5001821;28;20141;-73
2021/11/15 07:47:08;;;;;;;24.95;12.13;;;;;;;;;;5006266;28;20065;-73
2021/11/15 07:49:34;;;;;;;24.90;12.35;;;;;;;;;;5006794;28;20030;-73
2021/11/15 07:52:00;;;;;;;26.50;12.23;;;;;;;;;;4994442;28;20125;-73
2021/11/15 07:54:26;;;;;;;21.30;11.15;;;;;;;;;;4997218;28;20104;-73
2021/11/15 07:56:52;;;;;;;22.75;11.43;;;;;;;;;;5005370;28;20077;-73
2021/11/15 07:59:18;;;;;;;21.88;11.00;;;;;;;;;;4999748;28;20368;-73
2021/11/15 08:01:44;;;;;;;28.63;12.38;;;;;;;;;;4995325;28;20030;-73
2021/11/15 08:04:10;;;;;;;28.52;12.07;;;;;;;;;;4996372;28;20108;-73
2021/11/15 08:06:36;;;;;;;24.98;11.75;;;;;;;;;;4994240;28;20399;-73
2021/11/15 08:09:03;;;;;;;23.60;11.18;;;;;;;;;;4997279;28;20031;-73
2021/11/15 08:11:31;;;;;;;24.63;11.13;;;;;;;;;;4998343;28;20491;-73
2021/11/15 08:13:57;;;;;;;23.55;11.35;;;;;;;;;;4994066;28;20022;-73
2021/11/15 08:16:23;;;;;;;22.58;11.30;;;;;;;;;;4991814;28;20109;-73
2021/11/15 08:18:49;;;;;;;22.88;10.77;;;;;;;;;;4995999;28;20113;-73
2021/11/15 08:21:18;;;;;;;23.85;11.68;;;;;;;;;;4995836;28;20019;-73
2021/11/15 08:23:47;;;;;;;25.60;11.85;;;;;;;;;;4998875;28;20109;-73
2021/11/15 08:26:29;;;;;;;27.38;12.35;;;;;;;;;;5012658;23;20022;-71
2021/11/15 08:29:00;;;;;;;28.08;12.85;;;;;;;;;;5031649;28;20272;-71
2021/11/15 08:31:27;;;;;;;26.67;12.60;;;;;;;;;;5032343;28;20052;-71
2021/11/15 08:33:54;;;;;;;26.98;11.05;;;;;;;;;;5031833;28;20117;-71
2021/11/15 08:36:20;;;;;;;29.92;13.23;;;;;;;;;;5031688;28;20022;-71
2021/11/15 08:38:50;;;;;;;28.58;13.73;;;;;;;;;;5031221;28;20459;-71
2021/11/15 08:41:18;;;;;;;36.83;13.57;;;;;;;;;;5030265;28;20074;-71
2021/11/15 08:43:45;;;;;;;26.80;13.43;;;;;;;;;;5031816;28;20068;-71
2021/11/15 08:46:16;;;;;;;29.70;13.20;;;;;;;;;;5031887;28;20037;-71
2021/11/15 08:48:43;;;;;;;31.98;12.90;;;;;;;;;;5025307;28;20061;-71
2021/11/15 08:51:11;;;;;;;29.88;14.38;;;;;;;;;;5025819;28;20756;-71
2021/11/15 08:53:37;;;;;;;28.73;12.40;;;;;;;;;;5032138;28;20108;-71
2021/11/15 08:56:04;;;;;;;27.60;12.75;;;;;;;;;;5029232;28;20373;-71
2021/11/15 08:58:31;;;;;;;28.73;12.63;;;;;;;;;;5027035;28;20057;-71
2021/11/15 09:00:57;;;;;;;27.80;13.32;;;;;;;;;;5034490;28;20375;-72
2021/11/15 09:03:23;;;;;;;30.13;13.20;;;;;;;;;;5028148;28;20021;-72
2021/11/15 09:05:50;;;;;;;27.08;13.27;;;;;;;;;;5033987;28;20033;-72
2021/11/15 09:08:17;;;;;;;31.60;14.88;;;;;;;;;;5028859;28;20077;-72
2021/11/15 09:10:43;;;;;;;27.85;13.10;;;;;;;;;;5032634;28;20040;-71
2021/11/15 09:13:10;;;;;;;28.33;13.40;;;;;;;;;;5032631;28;20017;-72
2021/11/15 09:15:36;;;;;;;29.05;13.60;;;;;;;;;;5032434;28;20037;-71
2021/11/15 09:18:02;;;;;;;34.55;15.05;;;;;;;;;;5029339;28;20056;-72
2021/11/15 09:20:28;;;;;;;30.92;14.52;;;;;;;;;;5027077;28;20036;-71
2021/11/15 09:22:54;;;;;;;30.17;14.00;;;;;;;;;;5031876;28;20033;-72
2021/11/15 09:25:20;;;;;;;30.80;14.18;;;;;;;;;;5032357;28;20029;-71
2021/11/15 09:27:46;;;;;;;26.00;13.10;;;;;;;;;;5032847;28;20040;-71
2021/11/15 09:30:13;;;;;;;27.25;13.93;;;;;;;;;;5033912;28;20029;-71
2021/11/15 09:32:39;;;;;;;30.25;14.05;;;;;;;;;;5024521;28;20063;-71
2021/11/15 09:35:06;;;;;;;30.27;14.77;;;;;;;;;;5019931;28;20108;-71
2021/11/15 09:37:33;;;;;;;33.08;14.18;;;;;;;;;;5027663;28;20033;-71
2021/11/15 09:39:59;;;;;;;31.10;13.05;;;;;;;;;;5023513;28;20088;-71
2021/11/15 09:42:25;;;;;;;33.80;14.85;;;;;;;;;;5020930;28;20026;-71
2021/11/15 09:44:51;;;;;;;34.03;14.70;;;;;;;;;;5021756;28;20029;-71
2021/11/15 09:47:17;;;;;;;27.25;13.85;;;;;;;;;;5027214;28;20035;-69
2021/11/15 09:49:43;;;;;;;30.50;14.00;;;;;;;;;;5030959;28;21189;-68
2021/11/15 09:52:09;;;;;;;30.95;13.73;;;;;;;;;;5029680;28;20025;-69
2021/11/15 09:54:36;;;;;;;27.25;12.45;;;;;;;;;;5031375;28;20030;-71
2021/11/15 09:57:02;;;;;;;25.92;12.63;;;;;;;;;;5028067;28;20033;-72
2021/11/15 09:59:29;;;;;;;30.05;14.02;;;;;;;;;;5019532;28;20025;-72
2021/11/15 10:01:56;;;;;;;23.83;12.52;;;;;;;;;;5020075;28;20112;-72
2021/11/15 10:04:22;;;;;;;25.20;11.63;;;;;;;;;;5027983;28;20104;-72
2021/11/15 10:06:49;;;;;;;31.05;13.60;;;;;;;;;;5032796;28;20040;-72
2021/11/15 10:09:15;;;;;;;28.63;12.70;;;;;;;;;;5028723;28;20029;-72
2021/11/15 10:11:45;;;;;;;27.60;12.90;;;;;;;;;;5033068;28;20050;-72
2021/11/15 10:14:12;;;;;;;27.95;14.90;;;;;;;;;;5024561;28;20034;-72
2021/11/15 10:16:39;;;;;;;26.45;13.35;;;;;;;;;;5031317;28;20033;-72
2021/11/15 10:19:07;;;;;;;27.13;12.90;;;;;;;;;;5026199;28;20028;-72
2021/11/15 10:21:37;;;;;;;29.00;12.93;;;;;;;;;;5026619;28;20055;-71
2021/11/15 10:24:05;;;;;;;27.20;12.57;;;;;;;;;;5011869;28;20025;-72
2021/11/15 10:26:37;;;;;;;27.38;13.93;;;;;;;;;;5015297;28;20048;-71
2021/11/15 10:29:24;;;;;;;26.48;12.50;;;;;;;;;;5028334;28;20386;-71
2021/11/15 10:31:54;;;;;;;23.88;11.27;;;;;;;;;;5021898;28;20367;-71
2021/11/15 10:34:21;;;;;;;25.38;11.27;;;;;;;;;;5027004;28;20041;-71
2021/11/15 10:36:59;;;;;;;21.40;11.23;;;;;;;;;;5026706;28;20075;-71
2021/11/15 10:39:27;;;;;;;25.13;12.68;;;;;;;;;;5028857;28;20432;-71
2021/11/15 10:42:07;;;;;;;26.13;12.73;;;;;;;;;;5024812;28;20025;-71
2021/11/15 10:44:33;;;;;;;;;;;;;;;;;;5029105;28;20087;-71
2021/11/15 10:46:59;;;;;;;23.90;10.65;;;;;;;;;;5029308;28;19905;-71
2021/11/15 10:49:25;;;;;;;27.25;11.82;;;;;;;;;;5019577;28;20032;-71
2021/11/15 10:51:54;;;;;;;29.50;12.18;;;;;;;;;;5031033;28;20021;-71
2021/11/15 10:54:36;;;;;;;26.83;12.13;;;;;;;;;;5020073;28;20509;-71
2021/11/15 10:57:21;;;;;;;25.27;11.23;;;;;;;;;;5023808;28;20022;-71
2021/11/15 11:00:07;;;;;;;22.25;9.98;;;;;;;;;;5017807;28;20022;-71
2021/11/15 11:02:37;;;;;;;21.85;10.75;;;;;;;;;;5023031;28;20022;-71
2021/11/15 11:05:10;;;;;;;25.42;11.15;;;;;;;;;;5026470;28;20094;-71
2021/11/15 11:07:36;;;;;;;25.27;11.00;;;;;;;;;;5026193;28;20111;-71
2021/11/15 11:10:06;;;;;;;30.42;12.45;;;;;;;;;;5028995;28;20038;-71
2021/11/15 11:12:40;;;;;;;25.58;13.15;;;;;;;;;;5027658;28;20478;-71
2021/11/15 11:15:23;;;;;;;28.17;11.70;;;;;;;;;;5017513;28;20030;-70
2021/11/15 11:18:00;;;;;;;26.73;12.32;;;;;;;;;;5028698;28;20041;-71
2021/11/15 11:25:54;;;;;;;23.75;10.85;;;;;;;;;;4997244;28;20037;-71
2021/11/15 11:28:31;;;;;;;26.02;12.68;;;;;;;;;;5027605;28;20029;-70
2021/11/15 11:30:58;;;;;;;28.42;12.57;;;;;;;;;;5027979;28;20026;-73
2021/11/15 11:33:28;;;;;;;29.23;12.52;;;;;;;;;;5029832;28;20424;-70
2021/11/15 11:35:54;;;;;;;29.42;13.35;;;;;;;;;;5028785;28;20025;-70
2021/11/15 11:38:20;;;;;;;26.67;12.05;;;;;;;;;;5027406;28;20029;-70
2021/11/15 11:40:47;;;;;;;26.85;11.35;;;;;;;;;;5027574;28;20025;-70
2021/11/15 11:43:13;;;;;;;26.55;11.60;;;;;;;;;;5029936;28;20528;-71
2021/11/15 11:45:39;;;;;;;26.80;13.15;;;;;;;;;;5028726;28;20029;-71
2021/11/15 11:48:05;;;;;;;24.02;11.23;;;;;;;;;;5029336;28;20029;-70
2021/11/15 11:50:32;;;;;;;29.00;13.38;;;;;;;;;;5028976;28;20080;-68
2021/11/15 11:53:04;;;;;;;27.60;11.65;;;;;;;;;;5028963;28;20033;-68
2021/11/15 11:55:32;;;;;;;31.35;12.45;;;;;;;;;;5026397;28;20165;-69
2021/11/15 11:57:58;;;;;;;30.02;11.98;;;;;;;;;;5026379;28;20025;-69
2021/11/15 12:00:24;;;;;;;35.20;13.57;;;;;;;;;;5028736;28;20455;-69
2021/11/15 12:03:02;;;;;;;32.72;13.27;;;;;;;;;;5021649;28;20028;-69
2021/11/15 12:05:29;;;;;;;35.75;13.70;;;;;;;;;;5028310;28;20600;-68
2021/11/15 12:07:58;;;;;;;31.25;11.85;;;;;;;;;;5028511;28;20028;-69
2021/11/15 12:10:37;;;;;;;32.47;11.77;;;;;;;;;;5026483;28;20033;-68
2021/11/15 12:13:05;;;;;;;27.70;10.93;;;;;;;;;;5028770;28;20493;-70
2021/11/15 12:15:42;;;;;;;32.75;12.55;;;;;;;;;;5027895;28;20041;-69
2021/11/15 12:18:23;;;;;;;25.00;10.52;;;;;;;;;;5026413;28;20025;-69
2021/11/15 12:21:02;;;;;;;23.33;11.50;;;;;;;;;;5026726;28;20124;-69
2021/11/15 12:23:32;;;;;;;25.95;9.80;;;;;;;;;;5027618;28;20155;-68
2021/11/15 12:26:06;;;;;;;27.13;10.55;;;;;;;;;;5028246;28;20025;-69
2021/11/15 12:28:33;;;;;;;27.02;10.05;;;;;;;;;;5026040;28;20135;-69
2021/11/15 12:30:59;;;;;;;21.73;8.80;;;;;;;;;;5026022;28;20109;-69
2021/11/15 12:33:26;;;;;;;22.58;9.18;;;;;;;;;;5027511;28;20040;-68
2021/11/15 12:35:57;;;;;;;22.23;8.50;;;;;;;;;;5026597;28;20405;-69
2021/11/15 12:38:32;;;;;;;23.25;8.68;;;;;;;;;;5023541;28;20026;-70
2021/11/15 12:41:29;;;;;;;17.33;7.85;;;;;;;;;;5089444;27;20862;-72
2021/11/15 12:44:02;;;;;;;17.92;7.15;;;;;;;;;;5087732;28;20032;-70
2021/11/15 12:46:39;;;;;;;15.20;7.15;;;;;;;;;;5087625;28;20020;-71
2021/11/15 12:49:17;;;;;;;17.50;7.07;;;;;;;;;;5085995;28;20513;-71
2021/11/15 12:51:48;;;;;;;13.38;6.10;;;;;;;;;;5086585;28;20032;-72
2021/11/15 12:54:14;;;;;;;20.52;7.53;;;;;;;;;;5085735;28;20020;-71
2021/11/15 12:56:40;;;;;;;14.18;6.05;;;;;;;;;;5082699;28;20075;-72
2021/11/15 12:59:07;;;;;;;19.35;7.00;;;;;;;;;;5082808;28;20017;-71
2021/11/15 13:01:33;;;;;;;17.40;7.22;;;;;;;;;;5092028;28;20027;-71
2021/11/15 13:03:59;;;;;;;18.52;8.13;;;;;;;;;;5084259;28;20098;-71
2021/11/15 13:06:26;;;;;;;12.80;6.03;;;;;;;;;;5087795;28;20035;-70
2021/11/15 13:08:52;;;;;;;11.10;4.85;;;;;;;;;;5079691;28;20386;-71
2021/11/15 13:11:18;;;;;;;13.02;5.63;;;;;;;;;;5083023;28;20029;-71
2021/11/15 13:13:44;;;;;;;14.52;5.93;;;;;;;;;;5092189;28;20103;-70
2021/11/15 13:16:11;;;;;;;14.48;6.38;;;;;;;;;;5088477;28;20020;-71
2021/11/15 13:18:39;;;;;;;14.77;7.03;;;;;;;;;;5091495;28;20439;-70
2021/11/15 13:21:09;;;;;;;20.80;9.20;;;;;;;;;;5089215;28;20086;-71
2021/11/15 13:23:35;;;;;;;15.40;6.95;;;;;;;;;;5087512;28;20032;-70
2021/11/15 13:26:01;;;;;;;18.52;6.90;;;;;;;;;;5090319;28;20020;-71
2021/11/15 13:28:29;;;;;;;11.30;5.68;;;;;;;;;;5085287;28;20028;-71
2021/11/15 13:30:55;;;;;;;13.98;5.55;;;;;;;;;;5084109;28;20032;-72
2021/11/15 13:33:21;;;;;;;16.73;5.20;;;;;;;;;;5080984;28;20058;-72
2021/11/15 13:35:47;;;;;;;11.85;5.30;;;;;;;;;;5086765;28;20105;-71
2021/11/15 13:38:13;;;;;;;12.50;4.93;;;;;;;;;;5082446;28;20095;-72
2021/11/15 13:40:42;;;;;;;11.45;4.95;;;;;;;;;;5085222;28;20087;-71
2021/11/15 13:43:09;;;;;;;12.52;5.25;;;;;;;;;;5087247;28;20473;-72
2021/11/15 13:45:35;;;;;;;17.58;5.57;;;;;;;;;;5079477;28;20042;-72
2021/11/15 13:48:02;;;;;;;14.23;4.97;;;;;;;;;;5085005;28;20126;-72
2021/11/15 13:50:28;;;;;;;9.43;4.32;;;;;;;;;;5083910;28;20446;-72
2021/11/15 13:52:54;;;;;;;9.98;3.95;;;;;;;;;;5071159;28;20030;-72
2021/11/15 13:55:20;;;;;;;14.90;5.47;;;;;;;;;;5071226;28;20115;-72
2021/11/15 13:57:46;;;;;;;13.00;4.85;;;;;;;;;;5070903;28;20032;-72
2021/11/15 14:00:12;;;;;;;10.52;6.15;;;;;;;;;;5068990;28;20041;-72
2021/11/15 14:02:38;;;;;;;13.68;5.13;;;;;;;;;;5068489;28;20020;-72
2021/11/15 14:05:05;;;;;;;10.07;4.90;;;;;;;;;;5070150;28;20024;-72
2021/11/15 14:07:31;;;;;;;15.38;5.63;;;;;;;;;;5069868;28;20044;-72
2021/11/15 14:09:57;;;;;;;19.48;5.75;;;;;;;;;;5065851;28;20025;-72
2021/11/15 14:12:23;;;;;;;14.68;5.95;;;;;;;;;;5071361;28;20035;-72
2021/11/15 14:14:49;;;;;;;15.20;5.68;;;;;;;;;;5072032;28;20047;-72
2021/11/15 14:17:16;;;;;;;14.80;5.85;;;;;;;;;;5065598;28;20108;-72
2021/11/15 14:19:43;;;;;;;15.80;5.25;;;;;;;;;;5069436;28;20032;-72
2021/11/15 14:22:10;;;;;;;16.77;6.18;;;;;;;;;;5067976;28;20032;-72
2021/11/15 14:24:39;;;;;;;16.35;5.90;;;;;;;;;;5069292;28;20040;-72